sensor_id;sensor_type;location;lat;lon;timestamp;temperature;humidity
19880;DHT22;10102;50.828;4.416;2023-08-06T00:00:09;16.50;99.90
19880;DHT22;10102;50.828;4.416;2023-08-06T00:02:35;16.40;99.90
19880;DHT22;10102;50.828;4.416;2023-08-06T00:05:01;16.40;99.90
19880;DHT22;10102;50.828;4.416;2023-08-06T00:07:26;16.40;99.90
19880;DHT22;10102;50.828;4.416;2023-08-06T00:09:52;16.40;99.90
19880;DHT22;10102;50.828;4.416;2023-08-06T00:12:18;16.40;99.90
19880;DHT22;10102;50.828;4.416;2023-08-06T00:14:43;16.50;99.90
19880;DHT22;10102;50.828;4.416;2023-08-06T00:17:09;16.60;99.90
19880;DHT22;10102;50.828;4.416;2023-08-06T00:19:35;16.40;99.90
19880;DHT22;10102;50.828;4.416;2023-08-06T00:22:01;16.60;99.90
19880;DHT22;10102;50.828;4.416;2023-08-06T00:24:27;16.60;99.90
19880;DHT22;10102;50.828;4.416;2023-08-06T00:26:53;16.60;99.90
19880;DHT22;10102;50.828;4.416;2023-08-06T00:29:19;16.60;99.90
19880;DHT22;10102;50.828;4.416;2023-08-06T00:31:45;16.60;99.90
19880;DHT22;10102;50.828;4.416;2023-08-06T00:34:10;16.40;99.90
19880;DHT22;10102;50.828;4.416;2023-08-06T00:36:36;16.50;99.90
19880;DHT22;10102;50.828;4.416;2023-08-06T00:39:02;16.40;99.90
19880;DHT22;10102;50.828;4.416;2023-08-06T00:41:28;16.40;99.90
19880;DHT22;10102;50.828;4.416;2023-08-06T00:43:54;16.40;99.90
19880;DHT22;10102;50.828;4.416;2023-08-06T00:46:20;16.40;99.90
19880;DHT22;10102;50.828;4.416;2023-08-06T00:48:46;16.40;99.90
19880;DHT22;10102;50.828;4.416;2023-08-06T00:51:12;16.50;99.90
19880;DHT22;10102;50.828;4.416;2023-08-06T00:53:38;16.20;99.90
19880;DHT22;10102;50.828;4.416;2023-08-06T00:56:05;16.60;99.90
19880;DHT22;10102;50.828;4.416;2023-08-06T00:58:31;16.50;99.90
19880;DHT22;10102;50.828;4.416;2023-08-06T01:00:57;16.50;99.90
19880;DHT22;10102;50.828;4.416;2023-08-06T01:03:23;16.50;99.90
19880;DHT22;10102;50.828;4.416;2023-08-06T01:05:49;16.50;99.90
19880;DHT22;10102;50.828;4.416;2023-08-06T01:08:41;16.50;99.90
19880;DHT22;10102;50.828;4.416;2023-08-06T01:14:51;16.50;99.90
19880;DHT22;10102;50.828;4.416;2023-08-06T01:17:18;16.90;99.90
19880;DHT22;10102;50.828;4.416;2023-08-06T01:19:44;16.40;99.90
19880;DHT22;10102;50.828;4.416;2023-08-06T01:22:10;16.40;99.90
19880;DHT22;10102;50.828;4.416;2023-08-06T01:24:36;16.60;99.90
19880;DHT22;10102;50.828;4.416;2023-08-06T01:27:11;16.40;99.90
19880;DHT22;10102;50.828;4.416;2023-08-06T01:29:52;16.30;99.90
19880;DHT22;10102;50.828;4.416;2023-08-06T01:32:22;16.40;99.90
19880;DHT22;10102;50.828;4.416;2023-08-06T01:34:50;16.40;99.90
19880;DHT22;10102;50.828;4.416;2023-08-06T01:37:17;16.30;99.90
19880;DHT22;10102;50.828;4.416;2023-08-06T01:39:43;16.50;99.90
19880;DHT22;10102;50.828;4.416;2023-08-06T01:42:09;16.50;99.90
19880;DHT22;10102;50.828;4.416;2023-08-06T01:44:34;16.30;99.90
19880;DHT22;10102;50.828;4.416;2023-08-06T01:47:00;16.40;99.90
19880;DHT22;10102;50.828;4.416;2023-08-06T01:49:26;16.40;99.90
19880;DHT22;10102;50.828;4.416;2023-08-06T01:51:52;16.40;99.90
19880;DHT22;10102;50.828;4.416;2023-08-06T01:54:17;16.30;99.90
19880;DHT22;10102;50.828;4.416;2023-08-06T01:56:43;16.30;99.90
19880;DHT22;10102;50.828;4.416;2023-08-06T01:59:08;16.30;99.90
19880;DHT22;10102;50.828;4.416;2023-08-06T02:01:34;16.40;99.90
19880;DHT22;10102;50.828;4.416;2023-08-06T02:04:00;16.40;99.90
19880;DHT22;10102;50.828;4.416;2023-08-06T02:06:25;16.30;99.90
19880;DHT22;10102;50.828;4.416;2023-08-06T02:08:51;16.50;99.90
19880;DHT22;10102;50.828;4.416;2023-08-06T02:11:17;16.40;99.90
19880;DHT22;10102;50.828;4.416;2023-08-06T02:13:43;16.40;99.90
19880;DHT22;10102;50.828;4.416;2023-08-06T02:16:09;16.20;99.90
19880;DHT22;10102;50.828;4.416;2023-08-06T02:18:35;16.30;99.90
19880;DHT22;10102;50.828;4.416;2023-08-06T02:21:01;15.90;99.90
19880;DHT22;10102;50.828;4.416;2023-08-06T02:23:27;16.10;99.90
19880;DHT22;10102;50.828;4.416;2023-08-06T02:26:00;16.10;99.90
19880;DHT22;10102;50.828;4.416;2023-08-06T02:28:27;16.00;99.90
19880;DHT22;10102;50.828;4.416;2023-08-06T02:30:53;15.90;99.90
19880;DHT22;10102;50.828;4.416;2023-08-06T02:33:19;16.00;99.90
19880;DHT22;10102;50.828;4.416;2023-08-06T02:35:44;15.90;99.90
19880;DHT22;10102;50.828;4.416;2023-08-06T02:38:10;16.10;99.90
19880;DHT22;10102;50.828;4.416;2023-08-06T02:40:36;16.30;99.90
19880;DHT22;10102;50.828;4.416;2023-08-06T02:43:02;16.10;99.90
19880;DHT22;10102;50.828;4.416;2023-08-06T02:45:28;16.10;99.90
19880;DHT22;10102;50.828;4.416;2023-08-06T02:47:54;16.20;99.90
19880;DHT22;10102;50.828;4.416;2023-08-06T02:50:19;16.10;99.90
19880;DHT22;10102;50.828;4.416;2023-08-06T02:52:45;16.20;99.90
19880;DHT22;10102;50.828;4.416;2023-08-06T02:55:11;16.20;99.90
19880;DHT22;10102;50.828;4.416;2023-08-06T02:57:36;16.10;99.90
19880;DHT22;10102;50.828;4.416;2023-08-06T03:00:02;16.20;99.90
19880;DHT22;10102;50.828;4.416;2023-08-06T03:02:28;16.30;99.90
19880;DHT22;10102;50.828;4.416;2023-08-06T03:04:54;16.20;99.90
19880;DHT22;10102;50.828;4.416;2023-08-06T03:07:19;16.30;99.90
19880;DHT22;10102;50.828;4.416;2023-08-06T03:09:45;16.50;99.90
19880;DHT22;10102;50.828;4.416;2023-08-06T03:12:11;16.60;99.90
19880;DHT22;10102;50.828;4.416;2023-08-06T03:14:36;16.50;99.90
19880;DHT22;10102;50.828;4.416;2023-08-06T03:17:03;16.50;99.90
19880;DHT22;10102;50.828;4.416;2023-08-06T03:19:28;16.60;99.90
19880;DHT22;10102;50.828;4.416;2023-08-06T03:21:54;16.60;99.90
19880;DHT22;10102;50.828;4.416;2023-08-06T03:24:20;16.60;99.90
19880;DHT22;10102;50.828;4.416;2023-08-06T03:26:45;16.60;99.90
19880;DHT22;10102;50.828;4.416;2023-08-06T03:29:11;16.60;99.90
19880;DHT22;10102;50.828;4.416;2023-08-06T03:31:37;16.60;99.90
19880;DHT22;10102;50.828;4.416;2023-08-06T03:34:02;16.60;99.90
19880;DHT22;10102;50.828;4.416;2023-08-06T03:36:28;16.60;99.90
19880;DHT22;10102;50.828;4.416;2023-08-06T03:38:54;16.60;99.90
19880;DHT22;10102;50.828;4.416;2023-08-06T03:41:20;16.60;99.90
19880;DHT22;10102;50.828;4.416;2023-08-06T03:43:45;16.70;99.90
19880;DHT22;10102;50.828;4.416;2023-08-06T03:48:37;16.60;99.90
19880;DHT22;10102;50.828;4.416;2023-08-06T03:51:03;16.70;99.90
19880;DHT22;10102;50.828;4.416;2023-08-06T03:53:28;16.70;99.90
19880;DHT22;10102;50.828;4.416;2023-08-06T03:55:54;16.40;99.90
19880;DHT22;10102;50.828;4.416;2023-08-06T03:58:21;16.60;99.90
19880;DHT22;10102;50.828;4.416;2023-08-06T04:00:46;16.80;99.90
19880;DHT22;10102;50.828;4.416;2023-08-06T04:03:12;16.80;99.90
19880;DHT22;10102;50.828;4.416;2023-08-06T04:05:38;16.70;99.90
19880;DHT22;10102;50.828;4.416;2023-08-06T04:08:04;16.70;99.90
19880;DHT22;10102;50.828;4.416;2023-08-06T04:10:29;16.70;99.90
19880;DHT22;10102;50.828;4.416;2023-08-06T04:12:55;16.70;99.90
19880;DHT22;10102;50.828;4.416;2023-08-06T04:15:20;16.70;99.90
19880;DHT22;10102;50.828;4.416;2023-08-06T04:17:47;16.50;99.90
19880;DHT22;10102;50.828;4.416;2023-08-06T04:20:13;16.50;99.90
19880;DHT22;10102;50.828;4.416;2023-08-06T04:22:38;16.40;99.90
19880;DHT22;10102;50.828;4.416;2023-08-06T04:25:05;16.20;99.90
19880;DHT22;10102;50.828;4.416;2023-08-06T04:27:31;16.30;99.90
19880;DHT22;10102;50.828;4.416;2023-08-06T04:29:56;16.30;99.90
19880;DHT22;10102;50.828;4.416;2023-08-06T04:32:22;16.10;99.90
19880;DHT22;10102;50.828;4.416;2023-08-06T04:34:48;16.00;99.90
19880;DHT22;10102;50.828;4.416;2023-08-06T04:37:13;15.90;99.90
19880;DHT22;10102;50.828;4.416;2023-08-06T04:39:39;16.20;99.90
19880;DHT22;10102;50.828;4.416;2023-08-06T04:42:05;15.80;99.90
19880;DHT22;10102;50.828;4.416;2023-08-06T04:46:57;15.60;99.90
19880;DHT22;10102;50.828;4.416;2023-08-06T04:49:24;15.60;99.90
19880;DHT22;10102;50.828;4.416;2023-08-06T04:54:16;15.50;99.90
19880;DHT22;10102;50.828;4.416;2023-08-06T04:56:42;15.50;99.90
19880;DHT22;10102;50.828;4.416;2023-08-06T04:59:08;15.50;99.90
19880;DHT22;10102;50.828;4.416;2023-08-06T05:01:33;15.40;99.90
19880;DHT22;10102;50.828;4.416;2023-08-06T05:03:59;15.60;99.90
19880;DHT22;10102;50.828;4.416;2023-08-06T05:06:25;15.50;99.90
19880;DHT22;10102;50.828;4.416;2023-08-06T05:08:50;15.50;99.90
19880;DHT22;10102;50.828;4.416;2023-08-06T05:11:16;15.70;99.90
19880;DHT22;10102;50.828;4.416;2023-08-06T05:13:42;15.60;99.90
19880;DHT22;10102;50.828;4.416;2023-08-06T05:16:07;15.60;99.90
19880;DHT22;10102;50.828;4.416;2023-08-06T05:18:33;15.50;99.90
19880;DHT22;10102;50.828;4.416;2023-08-06T05:23:26;15.40;99.90
19880;DHT22;10102;50.828;4.416;2023-08-06T05:25:51;15.50;99.90
19880;DHT22;10102;50.828;4.416;2023-08-06T05:28:17;15.50;99.90
19880;DHT22;10102;50.828;4.416;2023-08-06T05:30:43;15.80;99.90
19880;DHT22;10102;50.828;4.416;2023-08-06T05:33:08;15.50;99.90
19880;DHT22;10102;50.828;4.416;2023-08-06T05:35:34;15.40;99.90
19880;DHT22;10102;50.828;4.416;2023-08-06T05:38:00;15.50;99.90
19880;DHT22;10102;50.828;4.416;2023-08-06T05:40:26;15.60;99.90
19880;DHT22;10102;50.828;4.416;2023-08-06T05:42:54;15.60;99.90
19880;DHT22;10102;50.828;4.416;2023-08-06T05:45:20;15.60;99.90
19880;DHT22;10102;50.828;4.416;2023-08-06T05:47:48;15.70;99.90
19880;DHT22;10102;50.828;4.416;2023-08-06T05:50:14;15.70;99.90
19880;DHT22;10102;50.828;4.416;2023-08-06T05:55:06;15.70;99.90
19880;DHT22;10102;50.828;4.416;2023-08-06T05:57:31;15.70;99.90
19880;DHT22;10102;50.828;4.416;2023-08-06T05:59:57;16.10;99.90
19880;DHT22;10102;50.828;4.416;2023-08-06T06:05:38;15.80;99.90
19880;DHT22;10102;50.828;4.416;2023-08-06T06:08:04;15.90;99.90
19880;DHT22;10102;50.828;4.416;2023-08-06T06:10:30;15.90;99.90
19880;DHT22;10102;50.828;4.416;2023-08-06T06:12:56;15.90;99.90
19880;DHT22;10102;50.828;4.416;2023-08-06T06:15:21;16.10;99.90
19880;DHT22;10102;50.828;4.416;2023-08-06T06:17:48;16.00;99.90
19880;DHT22;10102;50.828;4.416;2023-08-06T06:20:14;16.10;99.90
19880;DHT22;10102;50.828;4.416;2023-08-06T06:22:40;16.20;99.90
19880;DHT22;10102;50.828;4.416;2023-08-06T06:25:06;16.30;99.90
19880;DHT22;10102;50.828;4.416;2023-08-06T06:27:33;16.40;99.90
19880;DHT22;10102;50.828;4.416;2023-08-06T06:29:59;16.50;99.90
19880;DHT22;10102;50.828;4.416;2023-08-06T06:32:25;16.40;99.90
19880;DHT22;10102;50.828;4.416;2023-08-06T06:34:51;16.20;99.90
19880;DHT22;10102;50.828;4.416;2023-08-06T06:37:16;16.50;99.90
19880;DHT22;10102;50.828;4.416;2023-08-06T06:39:42;16.60;99.90
19880;DHT22;10102;50.828;4.416;2023-08-06T06:42:09;16.50;99.90
19880;DHT22;10102;50.828;4.416;2023-08-06T06:44:35;16.50;99.90
19880;DHT22;10102;50.828;4.416;2023-08-06T06:47:01;16.40;99.90
19880;DHT22;10102;50.828;4.416;2023-08-06T06:49:26;16.60;99.90
19880;DHT22;10102;50.828;4.416;2023-08-06T06:51:52;16.60;99.90
19880;DHT22;10102;50.828;4.416;2023-08-06T06:54:18;16.50;99.90
19880;DHT22;10102;50.828;4.416;2023-08-06T06:56:43;16.70;99.90
19880;DHT22;10102;50.828;4.416;2023-08-06T06:59:09;16.40;99.90
19880;DHT22;10102;50.828;4.416;2023-08-06T07:01:35;16.30;99.90
19880;DHT22;10102;50.828;4.416;2023-08-06T07:04:00;16.20;99.90
19880;DHT22;10102;50.828;4.416;2023-08-06T07:08:56;16.00;99.90
19880;DHT22;10102;50.828;4.416;2023-08-06T07:11:22;15.90;99.90
19880;DHT22;10102;50.828;4.416;2023-08-06T07:13:49;15.90;99.90
19880;DHT22;10102;50.828;4.416;2023-08-06T07:16:15;15.80;99.90
19880;DHT22;10102;50.828;4.416;2023-08-06T07:18:41;15.90;99.90
19880;DHT22;10102;50.828;4.416;2023-08-06T07:21:06;16.00;99.90
19880;DHT22;10102;50.828;4.416;2023-08-06T07:23:32;16.10;99.90
19880;DHT22;10102;50.828;4.416;2023-08-06T07:25:58;16.10;99.90
19880;DHT22;10102;50.828;4.416;2023-08-06T07:28:23;16.20;99.90
19880;DHT22;10102;50.828;4.416;2023-08-06T07:30:50;16.20;99.90
19880;DHT22;10102;50.828;4.416;2023-08-06T07:33:16;16.20;99.90
19880;DHT22;10102;50.828;4.416;2023-08-06T07:35:42;16.20;99.90
19880;DHT22;10102;50.828;4.416;2023-08-06T07:38:08;16.40;99.90
19880;DHT22;10102;50.828;4.416;2023-08-06T07:40:36;16.40;99.90
19880;DHT22;10102;50.828;4.416;2023-08-06T07:43:03;16.70;99.90
19880;DHT22;10102;50.828;4.416;2023-08-06T07:45:33;16.90;99.90
19880;DHT22;10102;50.828;4.416;2023-08-06T07:47:59;17.10;99.90
19880;DHT22;10102;50.828;4.416;2023-08-06T07:50:25;17.40;99.90
19880;DHT22;10102;50.828;4.416;2023-08-06T07:52:50;17.10;99.90
19880;DHT22;10102;50.828;4.416;2023-08-06T07:55:16;17.00;99.90
19880;DHT22;10102;50.828;4.416;2023-08-06T07:57:42;17.40;99.90
19880;DHT22;10102;50.828;4.416;2023-08-06T08:00:08;17.60;99.90
19880;DHT22;10102;50.828;4.416;2023-08-06T08:05:01;17.80;99.90
19880;DHT22;10102;50.828;4.416;2023-08-06T08:09:54;17.50;99.90
19880;DHT22;10102;50.828;4.416;2023-08-06T08:12:19;17.60;99.90
19880;DHT22;10102;50.828;4.416;2023-08-06T08:14:45;17.50;99.90
19880;DHT22;10102;50.828;4.416;2023-08-06T08:17:11;17.40;99.90
19880;DHT22;10102;50.828;4.416;2023-08-06T08:19:37;17.60;99.90
19880;DHT22;10102;50.828;4.416;2023-08-06T08:22:03;17.90;99.90
19880;DHT22;10102;50.828;4.416;2023-08-06T08:24:29;17.80;99.90
19880;DHT22;10102;50.828;4.416;2023-08-06T08:26:56;17.80;99.90
19880;DHT22;10102;50.828;4.416;2023-08-06T08:29:22;17.60;99.90
19880;DHT22;10102;50.828;4.416;2023-08-06T08:31:49;17.40;99.90
19880;DHT22;10102;50.828;4.416;2023-08-06T08:34:18;17.20;99.90
19880;DHT22;10102;50.828;4.416;2023-08-06T08:36:44;17.10;99.90
19880;DHT22;10102;50.828;4.416;2023-08-06T08:39:13;16.50;99.90
19880;DHT22;10102;50.828;4.416;2023-08-06T08:41:39;16.60;99.90
19880;DHT22;10102;50.828;4.416;2023-08-06T08:44:08;16.40;99.90
19880;DHT22;10102;50.828;4.416;2023-08-06T08:46:38;16.50;99.90
19880;DHT22;10102;50.828;4.416;2023-08-06T08:49:06;16.50;99.90
19880;DHT22;10102;50.828;4.416;2023-08-06T08:51:33;16.70;99.90
19880;DHT22;10102;50.828;4.416;2023-08-06T08:54:07;16.80;99.90
19880;DHT22;10102;50.828;4.416;2023-08-06T08:56:34;16.80;99.90
19880;DHT22;10102;50.828;4.416;2023-08-06T08:58:59;16.80;99.90
19880;DHT22;10102;50.828;4.416;2023-08-06T09:01:25;16.80;99.90
19880;DHT22;10102;50.828;4.416;2023-08-06T09:03:52;17.00;99.90
19880;DHT22;10102;50.828;4.416;2023-08-06T09:06:20;16.90;99.90
19880;DHT22;10102;50.828;4.416;2023-08-06T09:09:02;16.90;99.90
19880;DHT22;10102;50.828;4.416;2023-08-06T09:11:36;17.00;99.90
19880;DHT22;10102;50.828;4.416;2023-08-06T09:14:06;17.10;99.90
19880;DHT22;10102;50.828;4.416;2023-08-06T09:16:37;17.40;99.90
19880;DHT22;10102;50.828;4.416;2023-08-06T09:19:12;17.10;99.90
19880;DHT22;10102;50.828;4.416;2023-08-06T09:21:39;17.30;99.90
19880;DHT22;10102;50.828;4.416;2023-08-06T09:24:12;16.90;99.90
19880;DHT22;10102;50.828;4.416;2023-08-06T09:26:43;16.80;99.90
19880;DHT22;10102;50.828;4.416;2023-08-06T09:29:11;17.00;99.90
19880;DHT22;10102;50.828;4.416;2023-08-06T09:31:47;16.50;99.90
19880;DHT22;10102;50.828;4.416;2023-08-06T09:34:23;16.50;99.90
19880;DHT22;10102;50.828;4.416;2023-08-06T09:36:50;16.80;99.90
19880;DHT22;10102;50.828;4.416;2023-08-06T09:39:18;15.70;99.90
19880;DHT22;10102;50.828;4.416;2023-08-06T09:41:45;15.50;99.90
19880;DHT22;10102;50.828;4.416;2023-08-06T09:44:21;15.50;99.90
19880;DHT22;10102;50.828;4.416;2023-08-06T09:46:52;15.30;99.90
19880;DHT22;10102;50.828;4.416;2023-08-06T09:49:19;15.40;99.90
19880;DHT22;10102;50.828;4.416;2023-08-06T09:51:49;15.30;99.90
19880;DHT22;10102;50.828;4.416;2023-08-06T09:54:17;15.20;99.90
19880;DHT22;10102;50.828;4.416;2023-08-06T09:56:46;15.30;99.90
19880;DHT22;10102;50.828;4.416;2023-08-06T10:01:39;15.20;99.90
19880;DHT22;10102;50.828;4.416;2023-08-06T10:04:06;15.50;99.90
19880;DHT22;10102;50.828;4.416;2023-08-06T10:06:36;15.50;99.90
19880;DHT22;10102;50.828;4.416;2023-08-06T10:09:05;15.60;99.90
19880;DHT22;10102;50.828;4.416;2023-08-06T10:11:31;15.40;99.90
19880;DHT22;10102;50.828;4.416;2023-08-06T10:14:04;15.70;99.90
19880;DHT22;10102;50.828;4.416;2023-08-06T10:16:31;15.90;99.90
19880;DHT22;10102;50.828;4.416;2023-08-06T10:18:58;16.00;99.90
19880;DHT22;10102;50.828;4.416;2023-08-06T10:21:24;16.00;99.90
19880;DHT22;10102;50.828;4.416;2023-08-06T10:23:56;16.00;99.90
19880;DHT22;10102;50.828;4.416;2023-08-06T10:26:28;16.00;99.90
19880;DHT22;10102;50.828;4.416;2023-08-06T10:28:54;16.00;99.90
19880;DHT22;10102;50.828;4.416;2023-08-06T10:31:52;15.90;99.90
19880;DHT22;10102;50.828;4.416;2023-08-06T10:34:07;15.90;99.90
19880;DHT22;10102;50.828;4.416;2023-08-06T10:38:59;15.90;99.90
19880;DHT22;10102;50.828;4.416;2023-08-06T10:41:31;15.60;99.90
19880;DHT22;10102;50.828;4.416;2023-08-06T10:44:07;15.60;99.90
19880;DHT22;10102;50.828;4.416;2023-08-06T10:46:33;15.70;99.90
19880;DHT22;10102;50.828;4.416;2023-08-06T10:48:59;15.60;99.90
19880;DHT22;10102;50.828;4.416;2023-08-06T10:51:26;15.60;99.90
19880;DHT22;10102;50.828;4.416;2023-08-06T10:53:53;15.60;99.90
19880;DHT22;10102;50.828;4.416;2023-08-06T10:56:20;15.50;99.90
19880;DHT22;10102;50.828;4.416;2023-08-06T11:01:14;15.50;99.90
19880;DHT22;10102;50.828;4.416;2023-08-06T11:03:42;16.10;99.90
19880;DHT22;10102;50.828;4.416;2023-08-06T11:06:08;15.50;99.90
19880;DHT22;10102;50.828;4.416;2023-08-06T11:08:36;15.50;99.90
19880;DHT22;10102;50.828;4.416;2023-08-06T11:13:37;15.70;99.90
19880;DHT22;10102;50.828;4.416;2023-08-06T11:16:05;15.80;99.90
19880;DHT22;10102;50.828;4.416;2023-08-06T11:18:32;16.40;99.90
19880;DHT22;10102;50.828;4.416;2023-08-06T11:21:00;16.00;99.90
19880;DHT22;10102;50.828;4.416;2023-08-06T11:23:27;16.20;99.90
19880;DHT22;10102;50.828;4.416;2023-08-06T11:25:54;16.20;99.90
19880;DHT22;10102;50.828;4.416;2023-08-06T11:28:20;16.40;99.90
19880;DHT22;10102;50.828;4.416;2023-08-06T11:30:50;16.90;99.90
19880;DHT22;10102;50.828;4.416;2023-08-06T11:33:23;16.50;99.90
19880;DHT22;10102;50.828;4.416;2023-08-06T11:38:17;16.00;99.90
19880;DHT22;10102;50.828;4.416;2023-08-06T11:40:47;16.20;99.90
19880;DHT22;10102;50.828;4.416;2023-08-06T11:43:13;16.10;99.90
19880;DHT22;10102;50.828;4.416;2023-08-06T11:48:55;15.90;99.90
19880;DHT22;10102;50.828;4.416;2023-08-06T11:51:25;15.80;99.90
19880;DHT22;10102;50.828;4.416;2023-08-06T11:53:57;15.80;99.90
19880;DHT22;10102;50.828;4.416;2023-08-06T11:56:24;15.70;99.90
19880;DHT22;10102;50.828;4.416;2023-08-06T11:58:50;15.70;99.90
19880;DHT22;10102;50.828;4.416;2023-08-06T12:01:16;15.50;99.90
19880;DHT22;10102;50.828;4.416;2023-08-06T12:03:42;15.70;99.90
19880;DHT22;10102;50.828;4.416;2023-08-06T12:06:07;15.80;99.90
19880;DHT22;10102;50.828;4.416;2023-08-06T12:08:33;15.70;99.90
19880;DHT22;10102;50.828;4.416;2023-08-06T12:10:59;15.60;99.90
19880;DHT22;10102;50.828;4.416;2023-08-06T12:13:25;15.40;99.90
19880;DHT22;10102;50.828;4.416;2023-08-06T12:15:51;15.50;99.90
19880;DHT22;10102;50.828;4.416;2023-08-06T12:18:19;15.90;99.90
19880;DHT22;10102;50.828;4.416;2023-08-06T12:20:45;16.10;99.90
19880;DHT22;10102;50.828;4.416;2023-08-06T12:26:20;16.70;99.90
19880;DHT22;10102;50.828;4.416;2023-08-06T12:28:45;16.70;99.90
19880;DHT22;10102;50.828;4.416;2023-08-06T12:31:11;17.10;99.90
19880;DHT22;10102;50.828;4.416;2023-08-06T12:33:37;17.00;99.90
19880;DHT22;10102;50.828;4.416;2023-08-06T12:36:03;17.00;99.90
19880;DHT22;10102;50.828;4.416;2023-08-06T12:38:28;16.80;99.90
19880;DHT22;10102;50.828;4.416;2023-08-06T12:40:58;17.20;99.90
19880;DHT22;10102;50.828;4.416;2023-08-06T12:43:24;17.20;99.90
19880;DHT22;10102;50.828;4.416;2023-08-06T12:45:49;17.30;99.90
19880;DHT22;10102;50.828;4.416;2023-08-06T12:48:15;16.90;99.90
19880;DHT22;10102;50.828;4.416;2023-08-06T12:50:41;16.70;99.90
19880;DHT22;10102;50.828;4.416;2023-08-06T12:53:06;16.50;99.90
19880;DHT22;10102;50.828;4.416;2023-08-06T12:55:32;17.00;99.90
19880;DHT22;10102;50.828;4.416;2023-08-06T12:57:58;17.00;99.90
19880;DHT22;10102;50.828;4.416;2023-08-06T13:02:50;17.40;99.90
19880;DHT22;10102;50.828;4.416;2023-08-06T13:05:16;17.50;99.90
19880;DHT22;10102;50.828;4.416;2023-08-06T13:07:41;17.60;99.90
19880;DHT22;10102;50.828;4.416;2023-08-06T13:10:07;17.20;99.90
19880;DHT22;10102;50.828;4.416;2023-08-06T13:12:33;17.30;99.90
19880;DHT22;10102;50.828;4.416;2023-08-06T13:14:59;17.30;99.90
19880;DHT22;10102;50.828;4.416;2023-08-06T13:17:24;17.20;99.90
19880;DHT22;10102;50.828;4.416;2023-08-06T13:19:50;16.80;99.90
19880;DHT22;10102;50.828;4.416;2023-08-06T13:22:16;16.90;99.90
19880;DHT22;10102;50.828;4.416;2023-08-06T13:24:41;16.90;99.90
19880;DHT22;10102;50.828;4.416;2023-08-06T13:27:07;16.80;99.90
19880;DHT22;10102;50.828;4.416;2023-08-06T13:29:35;16.80;99.90
19880;DHT22;10102;50.828;4.416;2023-08-06T13:34:26;16.40;99.90
19880;DHT22;10102;50.828;4.416;2023-08-06T13:36:52;16.40;99.90
19880;DHT22;10102;50.828;4.416;2023-08-06T13:39:18;16.30;99.90
19880;DHT22;10102;50.828;4.416;2023-08-06T13:41:45;16.00;99.90
19880;DHT22;10102;50.828;4.416;2023-08-06T13:44:10;16.20;99.90
19880;DHT22;10102;50.828;4.416;2023-08-06T13:46:36;16.10;99.90
19880;DHT22;10102;50.828;4.416;2023-08-06T13:49:04;15.80;99.90
19880;DHT22;10102;50.828;4.416;2023-08-06T13:51:30;15.70;99.90
19880;DHT22;10102;50.828;4.416;2023-08-06T13:53:56;15.50;99.90
19880;DHT22;10102;50.828;4.416;2023-08-06T13:56:23;15.60;99.90
19880;DHT22;10102;50.828;4.416;2023-08-06T14:01:17;15.40;99.90
19880;DHT22;10102;50.828;4.416;2023-08-06T14:03:44;15.50;99.90
19880;DHT22;10102;50.828;4.416;2023-08-06T14:06:10;15.20;99.90
19880;DHT22;10102;50.828;4.416;2023-08-06T14:08:35;15.50;99.90
19880;DHT22;10102;50.828;4.416;2023-08-06T14:11:01;15.50;99.90
19880;DHT22;10102;50.828;4.416;2023-08-06T14:13:27;15.60;99.90
19880;DHT22;10102;50.828;4.416;2023-08-06T14:15:52;15.70;99.90
19880;DHT22;10102;50.828;4.416;2023-08-06T14:18:18;15.70;99.90
19880;DHT22;10102;50.828;4.416;2023-08-06T14:20:44;15.80;99.90
19880;DHT22;10102;50.828;4.416;2023-08-06T14:23:10;15.80;99.90
19880;DHT22;10102;50.828;4.416;2023-08-06T14:25:36;16.00;99.90
19880;DHT22;10102;50.828;4.416;2023-08-06T14:28:03;16.10;99.90
19880;DHT22;10102;50.828;4.416;2023-08-06T14:30:29;15.80;99.90
19880;DHT22;10102;50.828;4.416;2023-08-06T14:32:54;15.90;99.90
19880;DHT22;10102;50.828;4.416;2023-08-06T14:35:20;15.90;99.90
19880;DHT22;10102;50.828;4.416;2023-08-06T14:37:46;15.90;99.90
19880;DHT22;10102;50.828;4.416;2023-08-06T14:40:12;15.90;99.90
19880;DHT22;10102;50.828;4.416;2023-08-06T14:42:37;15.50;99.90
19880;DHT22;10102;50.828;4.416;2023-08-06T14:45:03;15.90;99.90
19880;DHT22;10102;50.828;4.416;2023-08-06T14:47:29;15.90;99.90
19880;DHT22;10102;50.828;4.416;2023-08-06T14:49:55;15.90;99.90
19880;DHT22;10102;50.828;4.416;2023-08-06T14:52:21;16.10;99.90
19880;DHT22;10102;50.828;4.416;2023-08-06T14:54:46;16.10;99.90
19880;DHT22;10102;50.828;4.416;2023-08-06T14:57:12;16.30;99.90
19880;DHT22;10102;50.828;4.416;2023-08-06T14:59:39;16.60;99.90
19880;DHT22;10102;50.828;4.416;2023-08-06T15:04:32;16.60;99.90
19880;DHT22;10102;50.828;4.416;2023-08-06T15:06:57;16.90;99.90
19880;DHT22;10102;50.828;4.416;2023-08-06T15:09:23;16.60;99.90
19880;DHT22;10102;50.828;4.416;2023-08-06T15:11:49;16.50;99.90
19880;DHT22;10102;50.828;4.416;2023-08-06T15:14:15;16.50;99.90
19880;DHT22;10102;50.828;4.416;2023-08-06T15:16:41;16.50;99.90
19880;DHT22;10102;50.828;4.416;2023-08-06T15:19:07;16.60;99.90
19880;DHT22;10102;50.828;4.416;2023-08-06T15:21:32;16.60;99.90
19880;DHT22;10102;50.828;4.416;2023-08-06T15:26:25;16.80;99.90
19880;DHT22;10102;50.828;4.416;2023-08-06T15:28:50;17.00;99.90
19880;DHT22;10102;50.828;4.416;2023-08-06T15:31:19;16.90;99.90
19880;DHT22;10102;50.828;4.416;2023-08-06T15:33:45;16.60;99.90
19880;DHT22;10102;50.828;4.416;2023-08-06T15:36:11;16.50;99.90
19880;DHT22;10102;50.828;4.416;2023-08-06T15:38:37;16.80;99.90
19880;DHT22;10102;50.828;4.416;2023-08-06T15:41:02;17.00;99.90
19880;DHT22;10102;50.828;4.416;2023-08-06T15:43:28;17.20;99.90
19880;DHT22;10102;50.828;4.416;2023-08-06T15:45:54;17.30;99.90
19880;DHT22;10102;50.828;4.416;2023-08-06T15:48:19;17.70;99.90
19880;DHT22;10102;50.828;4.416;2023-08-06T15:50:45;18.60;99.90
19880;DHT22;10102;50.828;4.416;2023-08-06T15:53:11;18.70;99.90
19880;DHT22;10102;50.828;4.416;2023-08-06T15:55:37;19.10;99.90
19880;DHT22;10102;50.828;4.416;2023-08-06T15:58:04;19.00;99.90
19880;DHT22;10102;50.828;4.416;2023-08-06T16:00:30;18.60;99.90
19880;DHT22;10102;50.828;4.416;2023-08-06T16:02:56;18.50;99.90
19880;DHT22;10102;50.828;4.416;2023-08-06T16:05:22;18.30;99.90
19880;DHT22;10102;50.828;4.416;2023-08-06T16:07:51;18.20;99.90
19880;DHT22;10102;50.828;4.416;2023-08-06T16:10:17;18.10;99.90
19880;DHT22;10102;50.828;4.416;2023-08-06T16:12:42;18.20;99.90
19880;DHT22;10102;50.828;4.416;2023-08-06T16:15:08;21.40;99.90
19880;DHT22;10102;50.828;4.416;2023-08-06T16:17:35;21.40;99.90
19880;DHT22;10102;50.828;4.416;2023-08-06T16:20:01;21.50;99.90
19880;DHT22;10102;50.828;4.416;2023-08-06T16:22:27;21.00;99.90